Terminal Aerodrome Forecast
Issued by NWS Wilmington, OH

Current Version | Previous Version | Graphics & Text | Print | Product List | Glossary On
Versions: 1 2 3 4 5 6 7 8 9 10 11 12 13 14 15 16 17 18 19 20 21 22 23
000
FTUS41 KILN 271100
TAFCMH
TAF
KCMH 271138Z 2712/2812 21008KT P6SM SCT030 BKN100
      TEMPO 2712/2714 5SM BR SCT015 BKN025
     FM271700 26012G20KT P6SM -SHRA VCTS BKN035CB
     FM272200 28014G23KT P6SM VCSH BKN040
     FM280100 28010KT P6SM SCT030 BKN250=

USA.gov is the U.S. government's official web portal to all federal, state and local government web resources and services.